Terminal Aerodrome Forecast
Issued by NWS

Home | Current Version | Previous Version | Text Only | Print | Product List | Glossary Off
Versions: 1 2 3 4 5 6 7 8 9 10 11 12

000
FTUS43 KICT 200520
TAFRSL
TAF
KRSL 200520Z 2006/2106 20009KT P6SM BKN250
     FM201600 21013KT P6SM SCT250
     FM210400 27010KT P6SM SCT200=

USA.gov is the U.S. government's official web portal to all federal, state and local government web resources and services.